TLV1 LLHZ-LLHZ

Flight info

Callsign TLV1
Flight time 0h 2m
Altitude 1000
Route BOAH
Aircraft SA50/L-S/C

Departure

Time 2026-04-17 13:49
Airport Herzliya Airport (LLHZ)

Arrival

Time 2026-04-17 13:51
Airport Herzliya Airport (LLHZ)
Time Latitude Longitude Altitude Speed Heading
2026-04-17 13:32 32.18122 34.82921 95 ft 0 kts 20°
2026-04-17 13:38 32.18121 34.82920 93 ft 0 kts 20°
2026-04-17 13:39 32.18139 34.82954 99 ft 7 kts 45°
2026-04-17 13:39 32.18166 34.82971 113 ft 14 kts 349°
2026-04-17 13:39 32.18538 34.83000 166 ft 104 kts 38°
2026-04-17 13:40 32.19149 34.83631 349 ft 128 kts 40°
2026-04-17 13:40 32.19723 34.84544 381 ft 148 kts 52°
2026-04-17 13:40 32.20388 34.85512 397 ft 158 kts 44°
2026-04-17 13:40 32.21051 34.86338 376 ft 138 kts 55°
2026-04-17 13:41 32.21546 34.87386 403 ft 149 kts 57°
2026-04-17 13:41 32.22336 34.88091 290 ft 161 kts 358°
2026-04-17 13:41 32.23425 34.87929 62 ft 132 kts 341°
2026-04-17 13:41 32.24156 34.87525 149 ft 110 kts 279°
2026-04-17 13:42 32.24049 34.87522 50 ft 1 kts 70°
2026-04-17 13:42 32.24052 34.87532 38 ft 0 kts 67°
2026-04-17 13:43 32.24167 34.87570 101 ft 72 kts 336°
2026-04-17 13:43 32.24179 34.86907 98 ft 73 kts 290°
2026-04-17 13:43 32.23818 34.86316 357 ft 115 kts 220°
2026-04-17 13:44 32.23059 34.85741 378 ft 141 kts 204°
2026-04-17 13:44 32.22153 34.85155 269 ft 153 kts 209°
2026-04-17 13:44 32.21232 34.84610 360 ft 141 kts 199°
2026-04-17 13:44 32.20294 34.84110 325 ft 152 kts 203°
2026-04-17 13:45 32.19362 34.83579 341 ft 142 kts 204°
2026-04-17 13:45 32.18746 34.83369 420 ft 45 kts 212°
2026-04-17 13:45 32.18613 34.83304 356 ft 8 kts 199°
2026-04-17 13:45 32.18594 34.83299 385 ft 3 kts 192°
2026-04-17 13:46 32.18567 34.83289 391 ft 6 kts 191°
2026-04-17 13:46 32.18487 34.83261 395 ft 18 kts 193°
2026-04-17 13:46 32.18400 34.83237 358 ft 8 kts 190°
2026-04-17 13:46 32.18380 34.83228 385 ft 3 kts 185°
2026-04-17 13:47 32.18387 34.83212 390 ft 7 kts 186°
2026-04-17 13:47 32.18423 34.83209 329 ft 1 kts 178°
2026-04-17 13:47 32.18143 34.83239 199 ft 77 kts 237°
2026-04-17 13:47 32.17855 34.83183 365 ft 107 kts 128°
2026-04-17 13:48 32.17389 34.84009 571 ft 130 kts 114°
2026-04-17 13:48 32.17018 34.85014 593 ft 150 kts 124°
2026-04-17 13:48 32.16378 34.86031 670 ft 155 kts 123°
2026-04-17 13:48 32.15631 34.86926 668 ft 142 kts 98°
2026-04-17 13:49 32.16174 34.87321 739 ft 105 kts 334°
2026-04-17 13:49 32.16809 34.86601 458 ft 143 kts 308°
2026-04-17 13:49 32.17385 34.85677 572 ft 133 kts 324°
2026-04-17 13:49 32.18306 34.85575 400 ft 141 kts
2026-04-17 13:50 32.18830 34.84858 327 ft 136 kts 281°
2026-04-17 13:50 32.19035 34.83784 351 ft 132 kts 290°
2026-04-17 13:50 32.18512 34.83382 243 ft 114 kts 177°
2026-04-17 13:50 32.18123 34.83202 185 ft 67 kts 284°
2026-04-17 13:51 32.18168 34.82977 113 ft 10 kts 213°
2026-04-17 13:51 32.18152 34.82891 111 ft 13 kts 276°
2026-04-17 13:51 32.18152 34.82845 96 ft 0 kts 253°
2026-04-17 13:51 32.18151 34.82843 93 ft 0 kts 252°
2026-04-17 13:52 32.18149 34.82835 95 ft 0 kts 236°
2026-04-17 13:52 32.18152 34.82844 99 ft 1 kts 249°